Time;durP1;ratioP1;P1;durP2;ratioP2;P2;SDS_P1;SDS_P2;PMS_P1;PMS_P2;Temp;Humidity;BMP_temperature;BMP_pressure;BME280_temperature;BME280_humidity;BME280_pressure;Samples;Min_cycle;Max_cycle;Signal;HPM_P1;HPM_P2
2024/01/11 00:01:01;;;;;;;13.33;3.87;;;;;;;;;;5056867;28;20592;-82
2024/01/11 00:03:28;;;;;;;6.53;5.00;;;;;;;;;;5056819;28;20200;-84
2024/01/11 00:05:59;;;;;;;5.63;3.33;;;;;;;;;;5055434;28;20230;-84
2024/01/11 00:08:27;;;;;;;4.57;2.80;;;;;;;;;;5056105;28;20238;-83
2024/01/11 00:10:54;;;;;;;3.60;3.30;;;;;;;;;;5055868;28;20703;-83
2024/01/11 00:13:25;;;;;;;8.23;3.83;;;;;;;;;;5055739;28;20675;-84
2024/01/11 00:15:58;;;;;;;4.70;3.43;;;;;;;;;;5055797;28;20223;-84
2024/01/11 00:18:25;;;;;;;9.30;5.07;;;;;;;;;;5056047;28;20641;-82
2024/01/11 00:20:56;;;;;;;5.77;2.47;;;;;;;;;;5055251;28;20683;-83
2024/01/11 00:23:24;;;;;;;5.57;3.50;;;;;;;;;;5055970;28;20234;-82
2024/01/11 00:25:53;;;;;;;4.83;4.27;;;;;;;;;;5056080;28;20589;-82
2024/01/11 00:28:20;;;;;;;7.70;2.80;;;;;;;;;;5055731;28;20555;-84
2024/01/11 00:30:48;;;;;;;6.17;4.63;;;;;;;;;;5056208;28;20202;-83
2024/01/11 00:33:18;;;;;;;14.87;5.13;;;;;;;;;;5055607;28;20207;-84
2024/01/11 00:35:47;;;;;;;10.00;5.33;;;;;;;;;;5055747;28;20644;-84
2024/01/11 00:38:14;;;;;;;7.63;5.37;;;;;;;;;;5056214;28;20207;-83
2024/01/11 00:40:43;;;;;;;10.70;5.30;;;;;;;;;;5054604;28;20989;-84
2024/01/11 00:43:11;;;;;;;12.17;4.40;;;;;;;;;;5054257;28;20211;-85
2024/01/11 00:45:39;;;;;;;9.23;5.53;;;;;;;;;;5068175;28;20223;-85
2024/01/11 00:48:07;;;;;;;5.70;4.07;;;;;;;;;;5057146;28;20223;-84
2024/01/11 00:50:36;;;;;;;9.70;5.57;;;;;;;;;;5056449;28;20283;-83
2024/01/11 00:53:04;;;;;;;6.90;4.20;;;;;;;;;;5055907;28;20562;-84
2024/01/11 00:55:31;;;;;;;12.33;4.67;;;;;;;;;;5055038;28;20200;-83
2024/01/11 00:57:58;;;;;;;9.10;5.90;;;;;;;;;;5054681;28;20302;-83
2024/01/11 01:00:25;;;;;;;13.00;7.83;;;;;;;;;;5055272;28;20192;-83
2024/01/11 01:02:53;;;;;;;8.30;4.80;;;;;;;;;;5055777;28;20210;-84
2024/01/11 01:05:21;;;;;;;3.60;3.47;;;;;;;;;;5055006;28;20227;-84
2024/01/11 01:07:52;;;;;;;8.53;3.90;;;;;;;;;;5055470;28;20225;-84
2024/01/11 01:10:20;;;;;;;4.83;4.13;;;;;;;;;;5060625;28;20223;-85
2024/01/11 01:12:47;;;;;;;7.13;3.57;;;;;;;;;;5055389;28;20288;-85
2024/01/11 01:15:15;;;;;;;13.47;6.07;;;;;;;;;;5055156;28;20208;-84
2024/01/11 01:17:47;;;;;;;4.87;4.43;;;;;;;;;;5055086;28;20578;-83
2024/01/11 01:20:14;;;;;;;8.83;6.00;;;;;;;;;;5054699;28;20204;-82
2024/01/11 01:22:41;;;;;;;7.13;6.43;;;;;;;;;;5054746;28;20215;-84
2024/01/11 01:25:11;;;;;;;17.70;7.67;;;;;;;;;;5054928;28;20276;-84
2024/01/11 01:27:40;;;;;;;12.17;7.87;;;;;;;;;;5053943;28;20613;-82
2024/01/11 01:30:08;;;;;;;9.07;4.87;;;;;;;;;;5054844;28;20230;-84
2024/01/11 01:32:39;;;;;;;10.57;6.40;;;;;;;;;;5054636;28;20204;-84
2024/01/11 01:35:08;;;;;;;6.27;4.70;;;;;;;;;;5054616;28;20227;-85
2024/01/11 01:37:37;;;;;;;14.83;4.63;;;;;;;;;;5054472;28;20203;-84
2024/01/11 01:40:07;;;;;;;9.97;3.37;;;;;;;;;;5053735;28;20204;-84
2024/01/11 01:42:42;;;;;;;7.93;5.30;;;;;;;;;;5054082;28;20203;-83
2024/01/11 01:45:13;;;;;;;2.97;2.53;;;;;;;;;;5053912;28;20202;-83
2024/01/11 01:47:44;;;;;;;6.80;3.63;;;;;;;;;;5053882;28;20559;-83
2024/01/11 01:50:12;;;;;;;2.33;1.93;;;;;;;;;;5054592;28;20199;-84
2024/01/11 01:52:41;;;;;;;2.60;2.33;;;;;;;;;;5056801;28;20223;-83
2024/01/11 01:55:11;;;;;;;2.30;2.10;;;;;;;;;;5057510;28;20203;-83
2024/01/11 01:57:41;;;;;;;3.30;2.97;;;;;;;;;;5054679;28;20225;-83
2024/01/11 02:00:10;;;;;;;4.27;3.47;;;;;;;;;;5054682;28;20218;-84
2024/01/11 02:02:38;;;;;;;6.73;2.97;;;;;;;;;;5054663;28;20305;-83
2024/01/11 02:05:08;;;;;;;3.73;2.53;;;;;;;;;;5054795;28;20205;-84
2024/01/11 02:07:35;;;;;;;7.83;1.93;;;;;;;;;;5053456;28;20231;-84
2024/01/11 02:10:04;;;;;;;4.80;2.40;;;;;;;;;;5054437;28;20257;-83
2024/01/11 02:12:32;;;;;;;5.10;3.50;;;;;;;;;;5054931;28;20283;-83
2024/01/11 02:15:03;;;;;;;17.07;5.07;;;;;;;;;;5056614;28;20222;-83
2024/01/11 02:17:30;;;;;;;4.17;3.87;;;;;;;;;;5058052;28;20203;-83
2024/01/11 02:19:58;;;;;;;7.30;3.03;;;;;;;;;;5060217;28;20191;-84
2024/01/11 02:22:25;;;;;;;3.00;2.73;;;;;;;;;;5070408;28;20226;-84
2024/01/11 02:24:54;;;;;;;4.83;4.37;;;;;;;;;;5066425;28;20199;-83
2024/01/11 02:27:23;;;;;;;4.57;3.70;;;;;;;;;;5054371;28;20230;-84
2024/01/11 02:29:51;;;;;;;3.63;3.43;;;;;;;;;;5060923;28;20199;-83
2024/01/11 02:32:20;;;;;;;4.37;3.93;;;;;;;;;;5068410;28;20203;-83
2024/01/11 02:34:48;;;;;;;4.57;2.87;;;;;;;;;;5069532;28;20214;-83
2024/01/11 02:37:15;;;;;;;11.63;2.93;;;;;;;;;;5069155;28;20203;-83
2024/01/11 02:39:43;;;;;;;5.27;2.87;;;;;;;;;;5069309;28;20203;-83
2024/01/11 02:42:13;;;;;;;7.33;5.17;;;;;;;;;;5069568;28;20190;-82
2024/01/11 02:44:42;;;;;;;5.83;3.57;;;;;;;;;;5074897;28;20363;-84
2024/01/11 02:47:10;;;;;;;3.67;3.37;;;;;;;;;;5071317;28;20769;-83
2024/01/11 02:49:38;;;;;;;7.93;3.20;;;;;;;;;;5060441;28;20226;-83
2024/01/11 02:52:08;;;;;;;8.83;3.37;;;;;;;;;;5058458;28;20255;-83
2024/01/11 02:54:36;;;;;;;3.57;2.63;;;;;;;;;;5066413;28;20195;-83
2024/01/11 02:57:03;;;;;;;5.73;3.07;;;;;;;;;;5065032;28;20199;-82
2024/01/11 02:59:32;;;;;;;3.17;3.03;;;;;;;;;;5066953;28;20236;-83
2024/01/11 03:02:00;;;;;;;9.10;4.23;;;;;;;;;;5064566;28;20278;-84
2024/01/11 03:04:28;;;;;;;9.47;3.87;;;;;;;;;;5070259;28;20188;-82
2024/01/11 03:06:55;;;;;;;4.50;4.20;;;;;;;;;;5069723;28;20235;-83
2024/01/11 03:09:23;;;;;;;2.57;2.37;;;;;;;;;;5068945;28;20306;-84
2024/01/11 03:11:51;;;;;;;4.07;3.67;;;;;;;;;;5070709;28;20251;-83
2024/01/11 03:14:18;;;;;;;3.40;3.20;;;;;;;;;;5064938;28;20214;-84
2024/01/11 03:16:47;;;;;;;8.43;4.57;;;;;;;;;;5063661;28;20270;-83
2024/01/11 03:19:18;;;;;;;10.27;4.03;;;;;;;;;;5064083;28;20202;-83
2024/01/11 03:21:46;;;;;;;4.50;3.87;;;;;;;;;;5067740;28;20207;-82
2024/01/11 03:24:13;;;;;;;4.60;4.20;;;;;;;;;;5071791;28;20203;-83
2024/01/11 03:26:41;;;;;;;12.70;7.07;;;;;;;;;;5072665;28;20222;-82
2024/01/11 03:29:08;;;;;;;4.57;3.93;;;;;;;;;;5073251;28;20199;-82
2024/01/11 03:31:37;;;;;;;6.47;4.70;;;;;;;;;;5067285;28;20218;-83
2024/01/11 03:34:07;;;;;;;13.57;4.93;;;;;;;;;;5066057;28;20304;-80
2024/01/11 03:36:34;;;;;;;15.40;4.37;;;;;;;;;;5059670;28;20221;-82
2024/01/11 03:39:02;;;;;;;5.13;4.50;;;;;;;;;;5061073;28;20187;-83
2024/01/11 03:41:30;;;;;;;4.50;4.20;;;;;;;;;;5072323;28;20207;-83
2024/01/11 03:44:00;;;;;;;6.00;2.87;;;;;;;;;;5072558;28;20222;-82
2024/01/11 03:46:29;;;;;;;5.03;3.37;;;;;;;;;;5069614;28;20729;-83
2024/01/11 03:48:58;;;;;;;8.80;4.57;;;;;;;;;;5062441;28;20203;-83
2024/01/11 03:51:28;;;;;;;2.90;2.80;;;;;;;;;;5058777;28;20203;-84
2024/01/11 03:53:55;;;;;;;14.07;4.83;;;;;;;;;;5058492;28;20222;-83
2024/01/11 03:56:21;;;;;;;7.13;3.50;;;;;;;;;;5058679;28;20310;-82
2024/01/11 03:58:49;;;;;;;8.40;5.10;;;;;;;;;;5061136;28;20211;-83
2024/01/11 04:01:19;;;;;;;12.53;5.00;;;;;;;;;;5058773;28;20227;-84
2024/01/11 04:03:46;;;;;;;19.67;11.20;;;;;;;;;;5059699;28;20451;-83
2024/01/11 04:06:21;;;;;;;10.30;6.83;;;;;;;;;;5063580;28;20242;-84
2024/01/11 04:08:50;;;;;;;18.90;5.07;;;;;;;;;;5063052;28;20219;-84
2024/01/11 04:11:17;;;;;;;7.60;5.07;;;;;;;;;;5061291;28;20199;-82
2024/01/11 04:13:47;;;;;;;7.80;5.70;;;;;;;;;;5062214;28;20199;-82
2024/01/11 04:16:17;;;;;;;8.17;4.83;;;;;;;;;;5064717;28;20208;-82
2024/01/11 04:18:45;;;;;;;6.03;5.03;;;;;;;;;;5065381;28;20202;-83
2024/01/11 04:21:22;;;;;;;17.33;4.50;;;;;;;;;;5065419;28;20206;-83
2024/01/11 04:23:52;;;;;;;7.03;4.17;;;;;;;;;;5066238;28;20195;-81
2024/01/11 04:26:19;;;;;;;4.60;3.13;;;;;;;;;;5067080;28;20204;-83
2024/01/11 04:28:47;;;;;;;40.13;7.00;;;;;;;;;;5064277;28;20211;-83
2024/01/11 04:31:16;;;;;;;11.57;4.13;;;;;;;;;;5059682;28;20269;-83
2024/01/11 04:33:44;;;;;;;4.63;3.00;;;;;;;;;;5060953;28;20195;-83
2024/01/11 04:36:16;;;;;;;14.10;7.27;;;;;;;;;;5063806;28;20203;-83
2024/01/11 04:38:44;;;;;;;33.10;5.67;;;;;;;;;;5064176;28;20187;-83
2024/01/11 04:41:13;;;;;;;7.17;5.03;;;;;;;;;;5063153;28;20200;-81
2024/01/11 04:43:45;;;;;;;17.27;6.57;;;;;;;;;;5062085;28;20214;-82
2024/01/11 04:46:16;;;;;;;6.83;5.20;;;;;;;;;;5058975;28;20207;-83
2024/01/11 04:48:44;;;;;;;9.57;6.07;;;;;;;;;;5059349;28;20196;-81
2024/01/11 04:51:12;;;;;;;11.50;6.37;;;;;;;;;;5063628;28;20199;-83
2024/01/11 04:53:40;;;;;;;4.83;4.40;;;;;;;;;;5059498;28;20267;-83
2024/01/11 04:56:09;;;;;;;7.70;6.87;;;;;;;;;;5059825;28;20199;-83
2024/01/11 04:58:39;;;;;;;5.83;5.37;;;;;;;;;;5063869;28;20208;-83
2024/01/11 05:01:07;;;;;;;7.30;6.40;;;;;;;;;;5068951;28;20195;-82
2024/01/11 05:03:35;;;;;;;13.40;7.30;;;;;;;;;;5064070;28;20233;-82
2024/01/11 05:06:05;;;;;;;8.73;5.40;;;;;;;;;;5066503;28;20215;-82
2024/01/11 05:08:32;;;;;;;64.43;23.93;;;;;;;;;;5062887;28;20309;-83
2024/01/11 05:11:02;;;;;;;24.50;8.70;;;;;;;;;;5054538;28;20770;-84
2024/01/11 05:13:29;;;;;;;8.73;5.23;;;;;;;;;;5061926;28;20239;-84
2024/01/11 05:16:00;;;;;;;13.03;4.73;;;;;;;;;;5069582;28;20288;-83
2024/01/11 05:18:27;;;;;;;10.17;4.90;;;;;;;;;;5069804;28;20214;-83
2024/01/11 05:20:55;;;;;;;5.07;3.70;;;;;;;;;;5068586;28;20207;-83
2024/01/11 05:23:23;;;;;;;11.37;5.17;;;;;;;;;;5058710;28;20214;-83
2024/01/11 05:25:51;;;;;;;18.67;5.33;;;;;;;;;;5054957;28;20202;-83
2024/01/11 05:28:19;;;;;;;18.63;6.83;;;;;;;;;;5053494;28;20238;-82
2024/01/11 05:30:47;;;;;;;15.63;7.33;;;;;;;;;;5054684;28;20219;-83
2024/01/11 05:33:17;;;;;;;15.07;7.53;;;;;;;;;;5053481;28;20588;-82
2024/01/11 05:35:45;;;;;;;15.67;5.97;;;;;;;;;;5053600;28;20253;-81
2024/01/11 05:38:13;;;;;;;12.80;7.80;;;;;;;;;;5053966;28;20211;-83
2024/01/11 05:40:41;;;;;;;7.90;6.23;;;;;;;;;;5053365;28;20200;-83
2024/01/11 05:43:08;;;;;;;8.03;4.63;;;;;;;;;;5052722;28;20201;-84
2024/01/11 05:45:36;;;;;;;10.50;7.40;;;;;;;;;;5054023;28;20570;-83
2024/01/11 05:48:05;;;;;;;15.50;8.03;;;;;;;;;;5052571;28;20562;-83
2024/01/11 05:50:34;;;;;;;14.30;9.00;;;;;;;;;;5054098;28;20211;-83
2024/01/11 05:53:03;;;;;;;17.87;6.53;;;;;;;;;;5053587;28;20727;-83
2024/01/11 05:55:32;;;;;;;9.17;6.80;;;;;;;;;;5053294;28;20278;-84
2024/01/11 05:57:58;;;;;;;11.77;6.50;;;;;;;;;;5053002;28;20270;-83
2024/01/11 06:00:29;;;;;;;7.43;6.13;;;;;;;;;;5053518;28;20278;-83
2024/01/11 06:02:57;;;;;;;9.27;4.73;;;;;;;;;;5054027;28;20397;-82
2024/01/11 06:05:24;;;;;;;11.50;6.27;;;;;;;;;;5053169;28;20210;-83
2024/01/11 06:07:54;;;;;;;10.73;5.30;;;;;;;;;;5053417;28;20616;-83
2024/01/11 06:10:22;;;;;;;8.27;5.37;;;;;;;;;;5054022;28;20309;-84
2024/01/11 06:12:53;;;;;;;5.63;5.20;;;;;;;;;;5054228;28;20238;-84
2024/01/11 06:15:22;;;;;;;7.67;6.87;;;;;;;;;;5053549;28;20207;-83
2024/01/11 06:17:49;;;;;;;12.47;7.40;;;;;;;;;;5053279;28;20199;-84
2024/01/11 06:20:20;;;;;;;11.77;8.63;;;;;;;;;;5053571;28;20203;-83
2024/01/11 06:22:48;;;;;;;9.20;6.73;;;;;;;;;;5053113;28;20701;-83
2024/01/11 06:25:18;;;;;;;14.27;6.90;;;;;;;;;;5052986;28;20214;-82
2024/01/11 06:27:46;;;;;;;17.40;6.50;;;;;;;;;;5052945;28;20227;-83
2024/01/11 06:30:14;;;;;;;14.17;9.37;;;;;;;;;;5053242;28;20680;-84
2024/01/11 06:32:42;;;;;;;13.87;8.80;;;;;;;;;;5053474;28;20199;-82
2024/01/11 06:35:10;;;;;;;22.13;9.57;;;;;;;;;;5052913;28;20253;-85
2024/01/11 06:37:38;;;;;;;20.63;12.30;;;;;;;;;;5052602;28;20214;-83
2024/01/11 06:40:08;;;;;;;18.20;11.77;;;;;;;;;;5054457;28;20207;-85
2024/01/11 06:42:39;;;;;;;19.03;11.10;;;;;;;;;;5053090;28;20199;-84
2024/01/11 06:45:08;;;;;;;30.13;12.87;;;;;;;;;;5053952;28;20234;-84
2024/01/11 06:47:39;;;;;;;21.17;10.73;;;;;;;;;;5052999;28;20235;-84
2024/01/11 06:50:09;;;;;;;33.20;11.63;;;;;;;;;;5052661;28;20201;-84
2024/01/11 06:52:36;;;;;;;33.13;10.37;;;;;;;;;;5052740;28;20210;-86
2024/01/11 06:55:03;;;;;;;13.00;8.43;;;;;;;;;;5052363;28;20203;-83
2024/01/11 06:57:30;;;;;;;22.50;9.33;;;;;;;;;;5052227;28;20199;-83
2024/01/11 07:00:02;;;;;;;13.80;8.43;;;;;;;;;;5052348;28;20192;-83
2024/01/11 07:02:29;;;;;;;7.20;5.57;;;;;;;;;;5052407;28;20199;-85
2024/01/11 07:04:59;;;;;;;13.13;6.40;;;;;;;;;;5051542;28;20764;-84
2024/01/11 07:07:30;;;;;;;14.07;6.63;;;;;;;;;;5052310;28;20230;-84
2024/01/11 07:09:57;;;;;;;15.13;7.87;;;;;;;;;;5051891;28;20247;-83
2024/01/11 07:12:29;;;;;;;13.77;8.67;;;;;;;;;;5053693;28;20695;-83
2024/01/11 07:14:56;;;;;;;14.77;8.40;;;;;;;;;;5053082;28;20238;-83
2024/01/11 07:17:25;;;;;;;19.03;9.20;;;;;;;;;;5052646;28;20210;-84
2024/01/11 07:19:52;;;;;;;19.67;9.33;;;;;;;;;;5052093;28;20207;-84
2024/01/11 07:22:20;;;;;;;32.37;10.23;;;;;;;;;;5052898;28;20503;-85
2024/01/11 07:24:50;;;;;;;19.43;10.17;;;;;;;;;;5056850;28;20251;-84
2024/01/11 07:27:36;;;;;;;19.87;9.30;;;;;;;;;;5058455;28;20234;-83
2024/01/11 07:30:06;;;;;;;18.80;8.57;;;;;;;;;;5067312;28;20199;-84
2024/01/11 07:32:36;;;;;;;18.70;9.10;;;;;;;;;;5073974;28;20191;-85
2024/01/11 07:35:03;;;;;;;22.37;11.57;;;;;;;;;;5058001;28;20199;-85
2024/01/11 07:37:31;;;;;;;24.97;11.67;;;;;;;;;;5051613;28;20201;-85
2024/01/11 07:39:59;;;;;;;18.40;10.70;;;;;;;;;;5051441;28;20257;-84
2024/01/11 07:42:26;;;;;;;19.03;11.17;;;;;;;;;;5053173;28;20201;-84
2024/01/11 07:44:54;;;;;;;19.07;10.93;;;;;;;;;;5057433;28;20218;-85
2024/01/11 07:47:22;;;;;;;24.43;11.43;;;;;;;;;;5055402;28;20191;-84
2024/01/11 07:49:53;;;;;;;20.43;11.53;;;;;;;;;;5050595;28;20575;-84
2024/01/11 07:52:21;;;;;;;23.83;12.60;;;;;;;;;;5051299;28;20227;-84
2024/01/11 07:54:48;;;;;;;23.17;11.53;;;;;;;;;;5051333;28;20219;-84
2024/01/11 07:57:16;;;;;;;18.57;11.20;;;;;;;;;;5050588;28;20254;-85
2024/01/11 07:59:44;;;;;;;26.97;12.23;;;;;;;;;;5053107;28;20227;-85
2024/01/11 08:02:17;;;;;;;21.80;11.53;;;;;;;;;;5049905;28;20346;-85
2024/01/11 08:04:45;;;;;;;30.20;11.77;;;;;;;;;;5051331;28;20219;-84
2024/01/11 08:07:15;;;;;;;27.97;11.47;;;;;;;;;;5054105;28;20291;-85
2024/01/11 08:09:45;;;;;;;29.10;11.60;;;;;;;;;;5054614;28;20243;-84
2024/01/11 08:12:13;;;;;;;22.93;11.33;;;;;;;;;;5054855;28;20219;-84
2024/01/11 08:14:38;;;;;;;23.07;10.57;;;;;;;;;;5054382;28;20570;-84
2024/01/11 08:17:06;;;;;;;20.60;12.10;;;;;;;;;;5054139;28;20234;-83
2024/01/11 08:19:33;;;;;;;17.23;10.60;;;;;;;;;;5055507;28;20250;-85
2024/01/11 08:22:03;;;;;;;23.50;10.80;;;;;;;;;;5054493;28;20508;-84
2024/01/11 08:24:32;;;;;;;23.23;12.13;;;;;;;;;;5054991;28;20296;-86
2024/01/11 08:26:59;;;;;;;27.97;12.30;;;;;;;;;;5054700;28;20219;-85
2024/01/11 08:29:27;;;;;;;19.63;10.20;;;;;;;;;;5054095;28;20643;-86
2024/01/11 08:31:56;;;;;;;22.97;10.80;;;;;;;;;;5054506;28;20272;-85
2024/01/11 08:34:23;;;;;;;22.77;10.43;;;;;;;;;;5054913;28;20227;-84
2024/01/11 08:36:51;;;;;;;19.70;9.93;;;;;;;;;;5054461;28;20223;-84
2024/01/11 08:39:21;;;;;;;16.33;8.90;;;;;;;;;;5054318;28;20541;-85
2024/01/11 08:41:49;;;;;;;30.07;13.37;;;;;;;;;;5053730;28;20301;-85
2024/01/11 08:44:18;;;;;;;32.67;12.13;;;;;;;;;;5053812;28;20226;-86
2024/01/11 08:46:46;;;;;;;17.30;10.97;;;;;;;;;;5051230;28;20413;-83
2024/01/11 08:49:13;;;;;;;31.00;12.70;;;;;;;;;;5042684;28;20219;-86
2024/01/11 08:51:41;;;;;;;28.80;13.50;;;;;;;;;;5054208;28;20223;-85
2024/01/11 08:54:11;;;;;;;25.53;12.60;;;;;;;;;;5054132;28;20219;-84
2024/01/11 08:56:41;;;;;;;26.47;10.67;;;;;;;;;;5053783;28;20235;-85
2024/01/11 08:59:11;;;;;;;27.97;12.30;;;;;;;;;;5033543;28;20228;-86
2024/01/11 09:01:40;;;;;;;37.43;14.00;;;;;;;;;;5033463;28;20215;-84
2024/01/11 09:04:09;;;;;;;27.20;12.93;;;;;;;;;;5033567;28;20302;-86
2024/01/11 09:06:46;;;;;;;24.93;13.70;;;;;;;;;;5050199;28;20224;-84
2024/01/11 09:09:14;;;;;;;22.77;12.23;;;;;;;;;;5053872;28;20306;-84
2024/01/11 09:11:42;;;;;;;21.60;11.60;;;;;;;;;;5055015;28;20265;-83
2024/01/11 09:14:12;;;;;;;31.70;13.90;;;;;;;;;;5053378;28;20229;-84
2024/01/11 09:16:41;;;;;;;34.17;14.37;;;;;;;;;;5053496;28;20310;-85
2024/01/11 09:19:09;;;;;;;30.63;14.30;;;;;;;;;;5052145;28;20273;-86
2024/01/11 09:21:36;;;;;;;26.40;13.17;;;;;;;;;;5053239;28;20237;-84
2024/01/11 09:24:05;;;;;;;26.70;13.53;;;;;;;;;;5052630;28;20273;-83
2024/01/11 09:26:36;;;;;;;26.23;13.33;;;;;;;;;;5053857;28;20365;-84
2024/01/11 09:29:04;;;;;;;29.47;14.93;;;;;;;;;;5053683;28;20616;-83
2024/01/11 09:31:35;;;;;;;31.63;13.67;;;;;;;;;;5053878;28;20231;-84
2024/01/11 09:34:02;;;;;;;27.30;13.57;;;;;;;;;;5055238;28;20223;-86
2024/01/11 09:36:31;;;;;;;24.33;14.47;;;;;;;;;;5054463;28;20245;-85
2024/01/11 09:39:00;;;;;;;31.70;14.97;;;;;;;;;;5053762;28;20219;-85
2024/01/11 09:41:27;;;;;;;23.37;12.47;;;;;;;;;;5053529;28;20374;-84
2024/01/11 09:43:57;;;;;;;33.23;14.93;;;;;;;;;;5053132;28;20226;-85
2024/01/11 09:46:24;;;;;;;25.17;12.50;;;;;;;;;;5054701;28;20211;-84
2024/01/11 09:48:57;;;;;;;25.43;12.47;;;;;;;;;;5069312;28;20227;-84
2024/01/11 09:51:28;;;;;;;27.93;13.67;;;;;;;;;;5058268;28;20230;-84
2024/01/11 09:53:57;;;;;;;23.00;12.70;;;;;;;;;;5053285;28;20227;-84
2024/01/11 09:56:25;;;;;;;30.10;13.53;;;;;;;;;;5055532;28;20288;-84
2024/01/11 09:58:55;;;;;;;26.40;12.70;;;;;;;;;;5055212;28;20235;-85
2024/01/11 10:01:25;;;;;;;29.83;13.23;;;;;;;;;;5055155;28;20234;-85
2024/01/11 10:03:55;;;;;;;25.73;13.87;;;;;;;;;;5056163;28;20282;-84
2024/01/11 10:06:25;;;;;;;28.67;14.80;;;;;;;;;;5053886;28;20233;-84
2024/01/11 10:08:53;;;;;;;25.37;12.97;;;;;;;;;;5055970;28;20250;-84
2024/01/11 10:11:21;;;;;;;29.73;13.53;;;;;;;;;;5054249;28;20312;-84
2024/01/11 10:13:48;;;;;;;27.67;12.80;;;;;;;;;;5054981;28;20298;-82
2024/01/11 10:16:17;;;;;;;24.93;13.27;;;;;;;;;;5053958;28;20380;-84
2024/01/11 10:18:46;;;;;;;32.53;13.97;;;;;;;;;;5054820;28;20231;-84
2024/01/11 10:21:18;;;;;;;35.20;15.07;;;;;;;;;;5054616;28;20288;-85
2024/01/11 10:23:45;;;;;;;32.90;15.57;;;;;;;;;;5055116;28;20700;-84
2024/01/11 10:26:13;;;;;;;29.73;16.03;;;;;;;;;;5055430;28;20265;-84
2024/01/11 10:28:41;;;;;;;33.23;16.83;;;;;;;;;;5054002;28;20250;-85
2024/01/11 10:31:10;;;;;;;29.40;15.63;;;;;;;;;;5054247;28;20677;-84
2024/01/11 10:33:39;;;;;;;30.37;15.57;;;;;;;;;;5042454;28;20223;-85
2024/01/11 10:36:09;;;;;;;27.77;14.73;;;;;;;;;;5054351;28;20229;-85
2024/01/11 10:38:40;;;;;;;35.63;15.33;;;;;;;;;;5053639;28;20296;-84
2024/01/11 10:41:10;;;;;;;35.53;14.53;;;;;;;;;;5054083;28;20222;-84
2024/01/11 10:43:39;;;;;;;35.00;14.93;;;;;;;;;;5052066;28;20638;-86
2024/01/11 10:46:08;;;;;;;26.97;14.77;;;;;;;;;;5052640;28;20231;-85
2024/01/11 10:48:41;;;;;;;27.57;14.47;;;;;;;;;;5054779;28;20711;-85
2024/01/11 10:51:12;;;;;;;33.97;16.43;;;;;;;;;;5054279;28;20717;-84
2024/01/11 10:53:45;;;;;;;32.53;17.20;;;;;;;;;;5053347;28;20266;-85
2024/01/11 10:56:13;;;;;;;32.40;17.23;;;;;;;;;;5050452;28;20684;-84
2024/01/11 10:58:42;;;;;;;28.37;14.37;;;;;;;;;;5053302;28;20668;-84
2024/01/11 11:01:10;;;;;;;39.53;15.27;;;;;;;;;;5053343;28;20326;-85
2024/01/11 11:03:38;;;;;;;28.47;13.87;;;;;;;;;;5053765;28;20740;-85
2024/01/11 11:06:06;;;;;;;32.27;16.90;;;;;;;;;;5055692;28;20231;-85
2024/01/11 11:08:35;;;;;;;32.60;14.83;;;;;;;;;;5059061;28;20250;-85
2024/01/11 11:11:06;;;;;;;24.17;13.87;;;;;;;;;;5063967;28;20227;-85
2024/01/11 11:13:34;;;;;;;26.37;13.80;;;;;;;;;;5074279;28;20229;-84
2024/01/11 11:16:03;;;;;;;30.40;14.50;;;;;;;;;;5065488;28;20223;-85
2024/01/11 11:18:30;;;;;;;31.43;14.83;;;;;;;;;;5055032;28;20229;-84
2024/01/11 11:20:59;;;;;;;32.97;13.97;;;;;;;;;;5054662;28;20315;-84
2024/01/11 11:23:37;;;;;;;31.90;14.43;;;;;;;;;;5054735;28;20243;-86
2024/01/11 11:26:16;;;;;;;31.20;14.70;;;;;;;;;;5054518;28;20227;-84
2024/01/11 11:28:43;;;;;;;27.40;13.60;;;;;;;;;;5053856;28;20237;-85
2024/01/11 11:31:14;;;;;;;26.30;14.10;;;;;;;;;;5053629;28;20235;-86
2024/01/11 11:33:43;;;;;;;31.87;14.30;;;;;;;;;;5053289;28;20227;-84
2024/01/11 11:36:14;;;;;;;29.97;13.53;;;;;;;;;;5052356;28;20231;-85
2024/01/11 11:38:41;;;;;;;30.87;14.17;;;;;;;;;;5050994;28;20223;-86
2024/01/11 11:41:12;;;;;;;27.23;14.23;;;;;;;;;;5053717;28;20218;-85
2024/01/11 11:43:41;;;;;;;20.53;11.57;;;;;;;;;;5055164;28;20296;-85
2024/01/11 11:46:11;;;;;;;27.90;12.67;;;;;;;;;;5056975;28;20223;-86
2024/01/11 11:48:54;;;;;;;28.10;11.83;;;;;;;;;;5054875;28;20230;-85
2024/01/11 11:51:22;;;;;;;27.37;11.20;;;;;;;;;;5056950;28;20254;-85
2024/01/11 11:53:50;;;;;;;17.37;8.77;;;;;;;;;;5062618;28;20223;-86
2024/01/11 11:56:20;;;;;;;19.60;9.40;;;;;;;;;;5069004;28;20227;-85
2024/01/11 11:58:47;;;;;;;16.80;7.67;;;;;;;;;;5069782;28;20229;-86
2024/01/11 12:01:17;;;;;;;20.40;9.40;;;;;;;;;;5077000;28;20245;-86
2024/01/11 12:03:48;;;;;;;13.43;8.17;;;;;;;;;;5076679;28;20221;-84
2024/01/11 12:06:16;;;;;;;15.90;7.83;;;;;;;;;;5056016;28;20225;-85
2024/01/11 12:08:47;;;;;;;18.50;8.23;;;;;;;;;;5055250;28;20234;-84
2024/01/11 12:11:17;;;;;;;15.30;8.33;;;;;;;;;;5057796;28;20304;-86
2024/01/11 12:13:46;;;;;;;10.47;7.57;;;;;;;;;;5056304;28;20223;-86
2024/01/11 12:16:15;;;;;;;11.83;7.80;;;;;;;;;;5056562;28;20223;-85
2024/01/11 12:18:43;;;;;;;10.43;7.00;;;;;;;;;;5055523;28;20233;-85
2024/01/11 12:21:11;;;;;;;15.10;7.17;;;;;;;;;;5054686;28;20254;-85
2024/01/11 12:23:40;;;;;;;10.90;6.23;;;;;;;;;;5054747;28;20219;-87
2024/01/11 12:26:12;;;;;;;9.80;6.50;;;;;;;;;;5056133;28;20293;-85
2024/01/11 12:28:45;;;;;;;11.83;5.90;;;;;;;;;;5054867;28;20666;-86
2024/01/11 12:31:14;;;;;;;11.67;5.70;;;;;;;;;;5055565;28;20230;-86
2024/01/11 12:33:43;;;;;;;10.40;7.20;;;;;;;;;;5054974;28;20224;-85
2024/01/11 12:36:11;;;;;;;14.97;7.10;;;;;;;;;;5057036;28;20280;-86
2024/01/11 12:38:39;;;;;;;8.63;5.87;;;;;;;;;;5055328;28;20290;-85
2024/01/11 12:41:10;;;;;;;7.80;4.90;;;;;;;;;;5057745;28;20306;-85
2024/01/11 12:43:37;;;;;;;4.20;2.60;;;;;;;;;;5058442;28;20717;-85
2024/01/11 12:46:05;;;;;;;4.30;2.53;;;;;;;;;;5060626;28;20261;-84
2024/01/11 12:48:36;;;;;;;2.83;2.50;;;;;;;;;;5058863;28;20227;-86
2024/01/11 12:51:04;;;;;;;2.37;2.20;;;;;;;;;;5058602;28;20606;-87
2024/01/11 12:53:32;;;;;;;3.33;2.23;;;;;;;;;;5057405;28;20223;-86
2024/01/11 12:56:16;;;;;;;3.80;2.30;;;;;;;;;;5057321;28;20231;-87
2024/01/11 12:58:46;;;;;;;2.87;2.33;;;;;;;;;;5057636;28;20226;-85
2024/01/11 13:01:14;;;;;;;2.40;2.10;;;;;;;;;;5056319;28;20382;-86
2024/01/11 13:03:50;;;;;;;2.97;2.70;;;;;;;;;;5054382;28;20663;-85
2024/01/11 13:06:32;;;;;;;2.40;2.20;;;;;;;;;;5052634;28;20706;-86
2024/01/11 13:09:25;;;;;;;2.83;2.33;;;;;;;;;;5053483;28;20364;-89
2024/01/11 13:11:53;;;;;;;2.50;2.30;;;;;;;;;;5052485;28;20332;-86
2024/01/11 13:14:41;;;;;;;3.47;2.43;;;;;;;;;;5056522;28;20226;-86
2024/01/11 13:17:27;;;;;;;5.87;3.07;;;;;;;;;;5056587;28;20219;-86
2024/01/11 13:20:01;;;;;;;3.77;2.27;;;;;;;;;;5056126;28;20225;-87
2024/01/11 13:22:37;;;;;;;3.40;2.00;;;;;;;;;;5053871;28;20254;-88
2024/01/11 13:25:20;;;;;;;6.87;3.87;;;;;;;;;;5055931;28;20223;-86
2024/01/11 13:27:48;;;;;;;3.73;2.43;;;;;;;;;;5054392;28;20730;-86
2024/01/11 13:30:17;;;;;;;4.87;2.63;;;;;;;;;;5053495;28;20238;-86
2024/01/11 13:32:44;;;;;;;3.00;2.80;;;;;;;;;;5052476;28;20290;-86
2024/01/11 13:35:17;;;;;;;2.30;2.20;;;;;;;;;;5053239;28;20227;-87
2024/01/11 13:37:45;;;;;;;4.73;2.90;;;;;;;;;;5052419;28;20547;-86
2024/01/11 13:40:13;;;;;;;6.63;2.70;;;;;;;;;;5076054;28;20305;-87
2024/01/11 13:42:40;;;;;;;2.97;2.13;;;;;;;;;;5073689;28;20236;-86
2024/01/11 13:45:09;;;;;;;4.70;3.17;;;;;;;;;;5073693;28;20197;-86
2024/01/11 13:47:37;;;;;;;3.27;2.60;;;;;;;;;;5074205;28;20210;-86
2024/01/11 13:50:05;;;;;;;3.00;2.17;;;;;;;;;;5075641;28;20234;-85
2024/01/11 13:52:42;;;;;;;5.83;2.87;;;;;;;;;;5084097;28;20201;-86
2024/01/11 13:55:11;;;;;;;3.60;2.67;;;;;;;;;;5082721;28;20205;-86
2024/01/11 13:57:39;;;;;;;7.17;3.60;;;;;;;;;;5081882;28;20191;-86
2024/01/11 14:00:13;;;;;;;4.93;3.20;;;;;;;;;;5091630;28;20191;-87
2024/01/11 14:02:42;;;;;;;4.57;2.60;;;;;;;;;;5095675;28;20193;-86
2024/01/11 14:05:14;;;;;;;2.97;2.27;;;;;;;;;;5095023;28;20202;-87
2024/01/11 14:07:45;;;;;;;3.30;2.60;;;;;;;;;;5091277;28;20281;-86
2024/01/11 14:10:13;;;;;;;4.10;2.57;;;;;;;;;;5087903;28;20231;-86
2024/01/11 14:13:14;;;;;;;4.00;2.70;;;;;;;;;;5079367;28;20201;-87
2024/01/11 14:15:42;;;;;;;3.17;2.97;;;;;;;;;;5074671;28;20202;-87
2024/01/11 14:18:30;;;;;;;2.50;2.40;;;;;;;;;;5078930;28;20286;-87
2024/01/11 14:22:18;;;;;;;4.90;2.97;;;;;;;;;;5120201;27;20628;-87
2024/01/11 14:24:46;;;;;;;3.07;2.87;;;;;;;;;;5119841;28;20402;-86
2024/01/11 14:27:14;;;;;;;5.33;3.33;;;;;;;;;;5116904;28;20258;-88
2024/01/11 14:29:42;;;;;;;2.30;2.00;;;;;;;;;;5117286;28;20227;-87
2024/01/11 14:32:11;;;;;;;4.70;3.00;;;;;;;;;;5118430;28;20224;-86
2024/01/11 14:34:39;;;;;;;6.33;3.63;;;;;;;;;;5115745;28;20747;-86
2024/01/11 14:37:06;;;;;;;3.87;3.13;;;;;;;;;;5116789;28;20205;-86
2024/01/11 14:39:36;;;;;;;5.53;3.03;;;;;;;;;;5123248;28;20201;-87
2024/01/11 14:42:03;;;;;;;4.53;3.03;;;;;;;;;;5124651;28;20233;-87
2024/01/11 14:44:30;;;;;;;18.27;7.53;;;;;;;;;;5133039;28;20185;-87